createdAt,value
2019-03-29T00:01:09.404Z,14.50
2019-03-29T00:03:37.919Z,10.80
2019-03-29T00:06:06.388Z,15.33
2019-03-29T00:08:35.971Z,11.37
2019-03-29T00:11:04.544Z,18.13
2019-03-29T00:13:32.999Z,15.70
2019-03-29T00:16:01.470Z,8.93
2019-03-29T00:18:29.969Z,11.63
2019-03-29T00:20:58.430Z,9.50
2019-03-29T00:23:26.893Z,11.33
2019-03-29T00:25:55.415Z,12.20
2019-03-29T00:28:23.889Z,13.13
2019-03-29T00:30:52.328Z,9.33
2019-03-29T00:33:20.858Z,9.80
2019-03-29T00:35:49.600Z,17.00
2019-03-29T00:38:18.131Z,11.17
2019-03-29T00:40:46.637Z,16.30
2019-03-29T00:43:15.105Z,11.43
2019-03-29T00:45:43.551Z,10.63
2019-03-29T00:48:12.038Z,16.77
2019-03-29T00:50:40.494Z,18.40
2019-03-29T00:53:09.182Z,14.53
2019-03-29T00:55:37.913Z,17.10
2019-03-29T00:58:06.367Z,17.47
2019-03-29T01:00:34.839Z,14.50
2019-03-29T01:03:03.471Z,24.70
2019-03-29T01:05:31.929Z,20.30
2019-03-29T01:08:07.651Z,20.77
2019-03-29T01:10:30.631Z,25.50
2019-03-29T01:12:59.254Z,25.33
2019-03-29T01:15:27.718Z,18.00
2019-03-29T01:17:56.184Z,24.33
2019-03-29T01:20:24.639Z,18.07
2019-03-29T01:22:53.092Z,20.63
2019-03-29T01:25:21.585Z,22.57
2019-03-29T01:27:50.038Z,30.07
2019-03-29T01:30:18.571Z,33.60
2019-03-29T01:32:47.065Z,31.97
2019-03-29T01:35:15.529Z,43.23
2019-03-29T01:37:44.288Z,44.07
2019-03-29T01:40:13.018Z,39.33
2019-03-29T01:42:41.493Z,39.93
2019-03-29T01:45:10.822Z,38.10
2019-03-29T01:47:39.329Z,37.60
2019-03-29T01:50:08.156Z,45.40
2019-03-29T01:52:37.086Z,42.27
2019-03-29T01:55:06.819Z,42.13
2019-03-29T01:57:35.364Z,62.07
2019-03-29T02:00:03.958Z,44.93
2019-03-29T02:02:32.445Z,55.20
2019-03-29T02:05:01.191Z,62.80
2019-03-29T02:07:30.074Z,45.20
2019-03-29T02:09:58.597Z,45.73
2019-03-29T02:12:27.065Z,56.70
2019-03-29T02:14:55.601Z,59.40
2019-03-29T02:17:24.107Z,59.73
2019-03-29T02:19:52.564Z,62.83
2019-03-29T02:22:21.028Z,68.33
2019-03-29T02:24:50.045Z,63.63
2019-03-29T02:27:18.675Z,48.83
2019-03-29T02:29:47.138Z,62.93
2019-03-29T02:32:15.622Z,53.30
2019-03-29T02:34:44.241Z,63.30
2019-03-29T02:37:12.719Z,49.60
2019-03-29T02:39:41.383Z,59.53
2019-03-29T02:42:09.856Z,45.83
2019-03-29T02:44:38.319Z,56.97
2019-03-29T02:49:40.730Z,55.17
2019-03-29T02:52:09.188Z,52.17
2019-03-29T02:54:37.690Z,57.67
2019-03-29T02:57:06.166Z,55.93
2019-03-29T02:59:34.625Z,58.87
2019-03-29T03:02:03.229Z,55.80
2019-03-29T03:04:31.708Z,47.47
2019-03-29T03:07:00.180Z,56.63
2019-03-29T03:09:28.674Z,51.27
2019-03-29T03:11:57.152Z,47.37
2019-03-29T03:14:25.658Z,54.13
2019-03-29T03:16:54.140Z,48.43
2019-03-29T03:19:22.603Z,51.03
2019-03-29T03:21:51.088Z,39.53
2019-03-29T03:24:19.606Z,50.97
2019-03-29T03:26:48.085Z,46.43
2019-03-29T03:29:16.643Z,42.67
2019-03-29T03:31:45.197Z,42.47
2019-03-29T03:34:13.709Z,47.67
2019-03-29T03:36:42.261Z,55.70
2019-03-29T03:39:10.762Z,51.07
2019-03-29T03:41:39.559Z,55.30
2019-03-29T03:44:08.019Z,50.70
2019-03-29T03:46:36.528Z,49.03
2019-03-29T03:49:05.052Z,50.53
2019-03-29T03:51:33.661Z,58.97
2019-03-29T03:54:02.185Z,48.87
2019-03-29T03:56:31.716Z,56.50
2019-03-29T03:59:00.246Z,51.03
2019-03-29T04:01:28.746Z,54.40
2019-03-29T04:03:57.282Z,56.57
2019-03-29T04:06:25.769Z,53.37
2019-03-29T04:08:54.293Z,53.40
2019-03-29T04:11:22.742Z,49.47
2019-03-29T04:13:51.209Z,48.70
2019-03-29T04:16:19.707Z,50.60
2019-03-29T04:18:48.184Z,55.27
2019-03-29T04:21:16.654Z,43.00
2019-03-29T04:23:45.235Z,44.30
2019-03-29T04:26:13.705Z,58.10
2019-03-29T04:28:42.177Z,51.40
2019-03-29T04:31:10.680Z,45.23
2019-03-29T04:33:39.165Z,47.77
2019-03-29T04:36:07.676Z,61.50
2019-03-29T04:38:36.172Z,44.93
2019-03-29T04:41:04.810Z,67.63
2019-03-29T04:43:34.322Z,52.80
2019-03-29T04:46:02.809Z,65.13
2019-03-29T04:48:31.274Z,52.00
2019-03-29T04:50:59.738Z,55.97
2019-03-29T04:53:28.294Z,57.10
2019-03-29T04:55:56.765Z,63.30
2019-03-29T04:58:26.875Z,60.83
2019-03-29T05:00:55.399Z,57.80
2019-03-29T05:03:23.848Z,51.47
2019-03-29T05:05:52.330Z,50.67
2019-03-29T05:08:20.840Z,48.63
2019-03-29T05:10:49.290Z,70.40
2019-03-29T05:13:17.759Z,65.00
2019-03-29T05:15:46.251Z,62.13
2019-03-29T05:18:14.715Z,48.77
2019-03-29T05:20:43.178Z,52.30
2019-03-29T05:23:11.662Z,55.63
2019-03-29T05:25:40.140Z,60.60
2019-03-29T05:28:08.613Z,63.20
2019-03-29T05:30:37.114Z,49.90
2019-03-29T05:33:05.606Z,45.80
2019-03-29T05:35:34.039Z,58.03
2019-03-29T05:38:02.540Z,56.80
2019-03-29T05:40:35.284Z,54.53
2019-03-29T05:43:01.174Z,58.70
2019-03-29T05:45:29.729Z,48.17
2019-03-29T05:47:58.202Z,53.00
2019-03-29T05:50:26.679Z,61.80
2019-03-29T05:52:55.263Z,57.97
2019-03-29T05:55:32.570Z,54.63
2019-03-29T05:57:53.950Z,57.80
2019-03-29T06:00:22.529Z,59.53
2019-03-29T06:02:50.992Z,61.47
2019-03-29T06:05:19.462Z,54.60
2019-03-29T06:07:47.977Z,49.43
2019-03-29T06:10:16.433Z,61.83
2019-03-29T06:12:44.908Z,47.53
2019-03-29T06:15:13.475Z,55.47
2019-03-29T06:17:48.581Z,50.90
2019-03-29T06:20:12.485Z,64.73
2019-03-29T06:22:40.989Z,56.13
2019-03-29T06:25:09.556Z,57.50
2019-03-29T06:27:38.014Z,51.03
2019-03-29T06:30:08.052Z,53.77
2019-03-29T06:32:36.520Z,48.07
2019-03-29T06:35:07.426Z,61.07
2019-03-29T06:37:36.857Z,49.37
2019-03-29T06:40:08.493Z,47.43
2019-03-29T06:42:36.984Z,44.53
2019-03-29T06:45:06.772Z,51.97
2019-03-29T06:47:35.434Z,52.37
2019-03-29T06:50:05.741Z,55.33
2019-03-29T06:52:34.232Z,64.00
2019-03-29T06:55:02.699Z,60.40
2019-03-29T06:57:31.163Z,53.67
2019-03-29T06:59:59.699Z,55.57
2019-03-29T07:02:28.153Z,60.50
2019-03-29T07:04:56.643Z,57.60
2019-03-29T07:07:25.171Z,55.80
2019-03-29T07:09:53.633Z,52.27
2019-03-29T07:12:22.107Z,52.70
2019-03-29T07:14:50.590Z,60.20
2019-03-29T07:17:19.052Z,58.40
2019-03-29T07:19:47.672Z,63.43
2019-03-29T07:22:16.193Z,64.73
2019-03-29T07:24:44.651Z,61.90
2019-03-29T07:27:13.120Z,69.13
2019-03-29T07:29:41.618Z,56.93
2019-03-29T07:32:10.091Z,62.47
2019-03-29T07:34:38.556Z,66.27
2019-03-29T07:37:07.083Z,59.17
2019-03-29T07:39:35.539Z,62.70
2019-03-29T07:42:04.021Z,84.63
2019-03-29T07:44:32.591Z,59.80
2019-03-29T07:47:01.069Z,53.00
2019-03-29T07:49:30.547Z,63.70
2019-03-29T07:51:59.040Z,56.20
2019-03-29T07:54:27.504Z,62.93
2019-03-29T07:56:55.968Z,58.00
2019-03-29T07:59:24.472Z,54.60
2019-03-29T08:01:53.461Z,60.73
2019-03-29T08:04:23.834Z,60.67
2019-03-29T08:06:52.150Z,61.37
2019-03-29T08:09:22.592Z,59.43
2019-03-29T08:11:50.809Z,55.70
2019-03-29T08:14:19.333Z,53.00
2019-03-29T08:16:47.792Z,54.93
2019-03-29T08:19:16.257Z,56.27
2019-03-29T08:21:44.780Z,59.33
2019-03-29T08:24:13.261Z,58.50
2019-03-29T08:26:41.736Z,66.57
2019-03-29T08:29:10.227Z,47.83
2019-03-29T08:31:38.687Z,61.77
2019-03-29T08:34:07.170Z,56.97
2019-03-29T08:36:35.676Z,52.37
2019-03-29T08:39:06.632Z,56.30
2019-03-29T08:41:36.459Z,49.47
2019-03-29T08:44:04.966Z,53.00
2019-03-29T08:46:33.433Z,49.33
2019-03-29T08:49:01.919Z,48.70
2019-03-29T08:51:30.544Z,48.80
2019-03-29T08:53:59.012Z,55.37
2019-03-29T08:56:27.484Z,46.87
2019-03-29T08:58:56.003Z,46.10
2019-03-29T09:01:24.453Z,53.70
2019-03-29T09:04:04.700Z,38.37
2019-03-29T09:06:23.162Z,42.80
2019-03-29T09:08:51.706Z,39.43
2019-03-29T09:11:20.173Z,48.53
2019-03-29T09:13:48.669Z,37.17
2019-03-29T09:16:17.136Z,27.47
2019-03-29T09:18:45.602Z,31.90
2019-03-29T09:21:14.124Z,22.80
2019-03-29T09:23:42.585Z,23.93
2019-03-29T09:26:11.120Z,24.43
2019-03-29T09:28:39.921Z,26.80
2019-03-29T09:31:08.379Z,21.00
2019-03-29T09:33:36.846Z,24.90
2019-03-29T09:36:05.494Z,17.47
2019-03-29T09:38:33.994Z,21.93
2019-03-29T09:41:02.483Z,21.77
2019-03-29T09:43:32.746Z,18.83
2019-03-29T09:46:03.337Z,26.13
2019-03-29T09:48:34.427Z,32.80
2019-03-29T09:51:01.644Z,20.07
2019-03-29T09:53:30.385Z,24.87
2019-03-29T09:55:58.846Z,13.50
2019-03-29T09:58:27.348Z,18.80
2019-03-29T10:00:55.808Z,15.20
2019-03-29T10:03:24.286Z,23.67
2019-03-29T10:05:52.777Z,21.13
2019-03-29T10:08:21.246Z,16.97
2019-03-29T10:10:49.700Z,17.93
2019-03-29T10:13:18.192Z,13.73
2019-03-29T10:15:46.662Z,10.67
2019-03-29T10:18:15.131Z,14.60
2019-03-29T10:20:43.628Z,11.10
2019-03-29T10:23:12.095Z,14.63
2019-03-29T10:25:40.546Z,11.77
2019-03-29T10:28:09.063Z,10.53
2019-03-29T10:30:42.076Z,11.57
2019-03-29T10:33:10.547Z,19.13
2019-03-29T10:35:51.007Z,7.20
2019-03-29T10:38:09.298Z,7.23
2019-03-29T10:40:37.757Z,5.93
2019-03-29T10:43:06.391Z,4.20
2019-03-29T10:45:39.786Z,7.17
2019-03-29T10:48:05.217Z,9.37
2019-03-29T10:50:33.785Z,7.63
2019-03-29T10:53:02.258Z,8.43
2019-03-29T10:55:30.962Z,7.67
2019-03-29T10:57:59.444Z,6.57
2019-03-29T11:00:36.345Z,6.30
2019-03-29T11:03:05.292Z,9.43
2019-03-29T11:05:33.754Z,6.67
2019-03-29T11:08:02.297Z,13.60
2019-03-29T11:10:38.621Z,9.80
2019-03-29T11:13:13.079Z,9.00
2019-03-29T11:15:37.335Z,6.07
2019-03-29T11:18:06.204Z,8.40
2019-03-29T11:20:34.662Z,10.17
2019-03-29T11:23:03.127Z,5.50
2019-03-29T11:25:31.698Z,5.27
2019-03-29T11:28:00.172Z,6.67
2019-03-29T11:30:41.444Z,3.90
2019-03-29T11:32:58.858Z,10.03
2019-03-29T11:35:27.386Z,3.37
2019-03-29T11:37:55.840Z,4.47
2019-03-29T11:40:24.374Z,4.70
2019-03-29T11:42:52.919Z,6.07
2019-03-29T11:45:21.401Z,4.90
2019-03-29T11:47:49.905Z,9.07
2019-03-29T11:50:18.427Z,5.03
2019-03-29T11:52:46.887Z,5.57
2019-03-29T11:55:15.441Z,4.77
2019-03-29T11:57:44.008Z,3.77
2019-03-29T12:00:13.063Z,5.73
2019-03-29T12:02:41.583Z,5.70
2019-03-29T12:05:10.063Z,7.10
2019-03-29T12:07:50.959Z,12.10
2019-03-29T12:10:19.458Z,6.03
2019-03-29T12:12:47.909Z,7.30
2019-03-29T12:15:16.444Z,4.50
2019-03-29T12:17:44.956Z,5.83
2019-03-29T12:20:13.485Z,6.10
2019-03-29T12:22:41.938Z,5.20
2019-03-29T12:25:10.517Z,5.00
2019-03-29T12:27:38.973Z,5.67
2019-03-29T12:30:11.005Z,5.03
2019-03-29T12:32:39.491Z,4.50
2019-03-29T12:35:09.996Z,4.47
2019-03-29T12:37:38.231Z,10.37
2019-03-29T12:40:08.337Z,6.00
2019-03-29T12:42:36.792Z,8.97
2019-03-29T12:45:08.168Z,12.10
2019-03-29T12:47:36.649Z,4.43
2019-03-29T12:50:08.498Z,7.33
2019-03-29T12:52:37.013Z,5.07
2019-03-29T12:55:06.084Z,3.10
2019-03-29T12:57:34.586Z,7.10
2019-03-29T13:00:05.083Z,9.77
2019-03-29T13:02:34.630Z,7.10
2019-03-29T13:05:03.573Z,5.43
2019-03-29T13:07:32.143Z,3.70
2019-03-29T13:10:00.643Z,3.93
2019-03-29T13:12:29.113Z,4.67
2019-03-29T13:14:57.554Z,7.67
2019-03-29T13:17:28.455Z,6.17
2019-03-29T13:19:56.240Z,4.50
2019-03-29T13:22:24.844Z,4.90
2019-03-29T13:24:53.480Z,4.27
2019-03-29T13:27:22.017Z,4.93
2019-03-29T13:29:50.479Z,5.37
2019-03-29T13:32:19.000Z,4.53
2019-03-29T13:34:51.093Z,6.20
2019-03-29T13:37:17.711Z,4.73
2019-03-29T13:39:46.235Z,4.30
2019-03-29T13:42:14.696Z,8.63
2019-03-29T13:44:43.156Z,3.80
2019-03-29T13:47:11.652Z,4.63
2019-03-29T13:49:40.123Z,5.77
2019-03-29T13:52:08.590Z,4.37
2019-03-29T13:54:37.759Z,6.00
2019-03-29T13:57:06.220Z,6.50
2019-03-29T13:59:34.669Z,5.00
2019-03-29T14:02:03.502Z,5.00
2019-03-29T14:04:31.967Z,5.07
2019-03-29T14:07:08.205Z,5.30
2019-03-29T14:09:36.716Z,7.43
2019-03-29T14:12:05.220Z,6.07
2019-03-29T14:14:38.605Z,4.77
2019-03-29T14:17:03.889Z,4.73
2019-03-29T14:19:32.349Z,7.93
2019-03-29T14:22:00.815Z,5.23
2019-03-29T14:24:29.318Z,6.17
2019-03-29T14:26:57.941Z,4.63
2019-03-29T14:29:26.386Z,4.97
2019-03-29T14:31:54.928Z,4.63
2019-03-29T14:34:23.397Z,6.23
2019-03-29T14:36:51.855Z,5.20
2019-03-29T14:39:20.347Z,5.80
2019-03-29T14:41:48.795Z,6.40
2019-03-29T14:44:17.254Z,6.80
2019-03-29T14:46:45.748Z,5.43
2019-03-29T14:49:14.208Z,4.50
2019-03-29T14:51:42.667Z,5.63
2019-03-29T14:54:11.149Z,3.77
2019-03-29T14:56:41.770Z,4.63
2019-03-29T14:59:09.781Z,4.00
2019-03-29T15:01:38.298Z,4.17
2019-03-29T15:04:06.864Z,5.90
2019-03-29T15:06:35.318Z,3.80
2019-03-29T15:09:05.851Z,5.10
2019-03-29T15:11:38.998Z,3.73
2019-03-29T15:14:07.460Z,6.77
2019-03-29T15:16:35.944Z,4.30
2019-03-29T15:19:04.396Z,4.93
2019-03-29T15:21:32.848Z,3.73
2019-03-29T15:24:01.477Z,6.53
2019-03-29T15:26:30.071Z,4.77
2019-03-29T15:28:58.542Z,3.37
2019-03-29T15:31:27.031Z,4.37
2019-03-29T15:33:55.897Z,4.83
2019-03-29T15:36:24.456Z,5.90
2019-03-29T15:38:53.029Z,5.07
2019-03-29T15:41:21.489Z,8.83
2019-03-29T15:43:50.024Z,6.07
2019-03-29T15:46:18.519Z,5.67
2019-03-29T15:48:46.974Z,8.40
2019-03-29T15:51:15.446Z,6.90
2019-03-29T15:53:43.943Z,10.90
2019-03-29T15:56:12.393Z,6.27
2019-03-29T15:58:40.867Z,8.23
2019-03-29T16:01:09.427Z,7.87
2019-03-29T16:03:37.886Z,8.60
2019-03-29T16:06:06.714Z,6.93
2019-03-29T16:08:35.197Z,8.53
2019-03-29T16:11:03.669Z,11.23
2019-03-29T16:13:32.131Z,10.90
2019-03-29T16:16:00.634Z,13.20
2019-03-29T16:18:30.732Z,10.90
2019-03-29T16:20:59.201Z,8.03
2019-03-29T16:23:27.838Z,8.97
2019-03-29T16:25:56.297Z,9.63
2019-03-29T16:28:24.755Z,11.13
2019-03-29T16:30:53.280Z,9.83
2019-03-29T16:33:21.755Z,9.70
2019-03-29T16:35:50.225Z,10.27
2019-03-29T16:38:18.715Z,10.47
2019-03-29T16:40:47.186Z,11.80
2019-03-29T16:43:15.661Z,12.30
2019-03-29T16:45:48.060Z,11.43
2019-03-29T16:48:14.343Z,17.83
2019-03-29T16:50:42.810Z,16.60
2019-03-29T16:53:11.313Z,12.33
2019-03-29T16:55:39.781Z,16.33
2019-03-29T16:58:08.241Z,11.93
2019-03-29T17:00:36.757Z,15.07
2019-03-29T17:03:05.415Z,13.60
2019-03-29T17:05:33.951Z,15.07
2019-03-29T17:08:05.278Z,15.10
2019-03-29T17:10:33.064Z,12.60
2019-03-29T17:13:01.827Z,17.03
2019-03-29T17:15:30.335Z,12.00
2019-03-29T17:17:58.818Z,18.50
2019-03-29T17:20:27.276Z,25.40
2019-03-29T17:22:55.779Z,19.70
2019-03-29T17:25:24.236Z,20.80
2019-03-29T17:27:52.731Z,19.77
2019-03-29T17:30:24.476Z,23.43
2019-03-29T17:32:52.946Z,15.60
2019-03-29T17:35:21.408Z,14.60
2019-03-29T17:37:49.906Z,15.23
2019-03-29T17:40:18.444Z,13.17
2019-03-29T17:42:47.157Z,14.97
2019-03-29T17:45:15.694Z,14.50
2019-03-29T17:47:44.213Z,24.63
2019-03-29T17:50:12.746Z,15.23
2019-03-29T17:52:41.255Z,17.60
2019-03-29T17:55:09.800Z,13.17
2019-03-29T17:57:38.258Z,18.67
2019-03-29T18:00:08.521Z,18.50
2019-03-29T18:02:37.150Z,17.50
2019-03-29T18:05:06.983Z,18.97
2019-03-29T18:07:35.485Z,18.83
2019-03-29T18:10:06.654Z,22.10
2019-03-29T18:12:35.143Z,17.40
2019-03-29T18:15:08.512Z,23.63
2019-03-29T18:17:36.979Z,19.23
2019-03-29T18:20:07.364Z,17.00
2019-03-29T18:22:35.854Z,19.60
2019-03-29T18:25:06.116Z,26.40
2019-03-29T18:27:34.571Z,18.87
2019-03-29T18:30:04.753Z,23.50
2019-03-29T18:32:33.596Z,32.03
2019-03-29T18:35:02.076Z,37.47
2019-03-29T18:37:31.370Z,25.47
2019-03-29T18:39:59.840Z,22.50
2019-03-29T18:42:28.311Z,23.20
2019-03-29T18:44:56.817Z,27.47
2019-03-29T18:47:25.291Z,18.20
2019-03-29T18:49:53.776Z,16.27
2019-03-29T18:52:22.282Z,30.47
2019-03-29T18:54:50.788Z,20.00
2019-03-29T18:57:19.402Z,20.63
2019-03-29T18:59:48.144Z,18.07
2019-03-29T19:02:16.552Z,20.17
2019-03-29T19:04:45.016Z,15.57
2019-03-29T19:07:13.570Z,18.13
2019-03-29T19:09:42.046Z,16.97
2019-03-29T19:12:10.639Z,22.60
2019-03-29T19:14:41.598Z,25.47
2019-03-29T19:17:09.345Z,18.07
2019-03-29T19:19:37.967Z,14.97
2019-03-29T19:22:06.468Z,18.30
2019-03-29T19:24:34.938Z,17.40
2019-03-29T19:27:03.424Z,22.03
2019-03-29T19:29:31.929Z,15.73
2019-03-29T19:32:00.619Z,18.00
2019-03-29T19:34:29.086Z,17.80
2019-03-29T19:36:57.597Z,20.07
2019-03-29T19:39:26.058Z,16.73
2019-03-29T19:41:54.530Z,15.40
2019-03-29T19:44:23.038Z,17.40
2019-03-29T19:46:51.528Z,24.03
2019-03-29T19:49:19.995Z,18.43
2019-03-29T19:51:48.651Z,15.90
2019-03-29T19:54:17.189Z,16.37
2019-03-29T19:56:45.658Z,26.83
2019-03-29T19:59:14.239Z,20.90
2019-03-29T20:01:42.721Z,21.43
2019-03-29T20:04:11.205Z,20.50
2019-03-29T20:06:39.721Z,15.63
2019-03-29T20:09:09.937Z,15.73
2019-03-29T20:11:38.627Z,20.77
2019-03-29T20:14:07.358Z,25.50
2019-03-29T20:16:35.814Z,18.83
2019-03-29T20:19:04.285Z,20.03
2019-03-29T20:21:32.794Z,24.73
2019-03-29T20:24:01.257Z,19.70
2019-03-29T20:26:29.715Z,19.63
2019-03-29T20:28:58.222Z,22.00
2019-03-29T20:31:26.676Z,20.70
2019-03-29T20:33:55.132Z,18.57
2019-03-29T20:36:23.657Z,27.13
2019-03-29T20:38:52.097Z,20.20
2019-03-29T20:41:20.577Z,22.43
2019-03-29T20:43:49.103Z,24.23
2019-03-29T20:46:17.560Z,21.20
2019-03-29T20:48:46.060Z,25.23
2019-03-29T20:51:14.565Z,22.47
2019-03-29T20:53:43.739Z,22.23
2019-03-29T20:56:12.394Z,23.27
2019-03-29T20:58:40.993Z,22.00
2019-03-29T21:01:09.469Z,21.30
2019-03-29T21:03:37.937Z,26.60
2019-03-29T21:06:06.437Z,26.57
2019-03-29T21:08:34.905Z,26.40
2019-03-29T21:11:03.378Z,26.97
2019-03-29T21:13:31.917Z,37.23
2019-03-29T21:16:01.427Z,22.90
2019-03-29T21:18:29.887Z,28.90
2019-03-29T21:20:58.397Z,24.07
2019-03-29T21:23:26.827Z,27.93
2019-03-29T21:25:55.327Z,28.00
2019-03-29T21:28:23.791Z,22.77
2019-03-29T21:30:52.326Z,24.10
2019-03-29T21:33:20.846Z,24.13
2019-03-29T21:35:49.305Z,24.90
2019-03-29T21:38:17.760Z,23.83
2019-03-29T21:40:46.252Z,26.20
2019-03-29T21:43:14.782Z,24.83
2019-03-29T21:45:43.232Z,33.40
2019-03-29T21:48:27.973Z,27.37
2019-03-29T21:50:41.934Z,36.20
2019-03-29T21:53:10.395Z,27.70
2019-03-29T21:55:38.887Z,31.67
2019-03-29T21:58:07.357Z,28.50
2019-03-29T22:00:35.831Z,27.20
2019-03-29T22:03:04.312Z,26.30
2019-03-29T22:05:32.757Z,29.27
2019-03-29T22:08:01.233Z,37.57
2019-03-29T22:10:29.731Z,28.33
2019-03-29T22:12:58.262Z,32.00
2019-03-29T22:15:26.721Z,31.13
2019-03-29T22:17:55.549Z,27.67
2019-03-29T22:20:24.018Z,33.93
2019-03-29T22:22:52.555Z,32.17
2019-03-29T22:25:21.062Z,31.07
2019-03-29T22:27:49.524Z,48.67
2019-03-29T22:30:18.051Z,35.33
2019-03-29T22:32:46.543Z,28.40
2019-03-29T22:35:15.001Z,30.20
2019-03-29T22:37:43.461Z,36.40
2019-03-29T22:40:12.028Z,30.47
2019-03-29T22:42:40.488Z,40.60
2019-03-29T22:45:09.188Z,38.27
2019-03-29T22:47:37.707Z,35.20
2019-03-29T22:50:06.732Z,29.27
2019-03-29T22:52:35.207Z,28.70
2019-03-29T22:55:07.276Z,30.87
2019-03-29T22:57:35.740Z,40.80
2019-03-29T23:00:10.434Z,34.87
2019-03-29T23:02:38.941Z,32.53
2019-03-29T23:05:08.071Z,38.97
2019-03-29T23:07:36.544Z,29.83
2019-03-29T23:10:06.353Z,35.57
2019-03-29T23:12:34.779Z,35.53
2019-03-29T23:15:03.323Z,35.60
2019-03-29T23:17:31.799Z,43.83
2019-03-29T23:20:00.385Z,33.00
2019-03-29T23:22:28.844Z,38.00
2019-03-29T23:24:57.352Z,37.57
2019-03-29T23:27:25.821Z,38.77
2019-03-29T23:29:54.291Z,39.50
2019-03-29T23:32:22.791Z,41.40
2019-03-29T23:34:51.250Z,34.10
2019-03-29T23:37:19.712Z,41.57
2019-03-29T23:39:48.214Z,38.67
2019-03-29T23:42:16.686Z,40.33
2019-03-29T23:44:45.147Z,39.67
2019-03-29T23:47:13.660Z,52.57
2019-03-29T23:49:42.120Z,39.20
2019-03-29T23:52:10.594Z,44.67
2019-03-29T23:54:39.087Z,50.97
2019-03-29T23:57:07.559Z,38.87
2019-03-29T23:59:36.034Z,36.10
